Time;durP1;ratioP1;P1;durP2;ratioP2;P2;SDS_P1;SDS_P2;PMS_P1;PMS_P2;Temp;Humidity;BMP_temperature;BMP_pressure;BME280_temperature;BME280_humidity;BME280_pressure;Samples;Min_cycle;Max_cycle;Signal;HPM_P1;HPM_P2
2022/06/09 00:00:26;;;;;;;1.10;0.70;;;21.70;68.80;;;;;;4993701;28;20189;-70
2022/06/09 00:02:56;;;;;;;0.55;0.55;;;21.70;68.80;;;;;;4994888;28;20189;-70
2022/06/09 00:05:25;;;;;;;0.70;0.60;;;21.80;68.90;;;;;;4978538;28;20173;-70
2022/06/09 00:07:55;;;;;;;1.17;0.60;;;21.70;68.80;;;;;;4994200;28;20260;-70
2022/06/09 00:10:30;;;;;;;0.65;0.60;;;21.70;68.80;;;;;;4978060;28;20188;-70
2022/06/09 00:12:57;;;;;;;0.60;0.60;;;21.70;68.80;;;;;;4995142;28;20173;-70
2022/06/09 00:15:24;;;;;;;0.68;0.55;;;21.70;68.70;;;;;;4994739;28;20232;-70
2022/06/09 00:17:49;;;;;;;0.68;0.60;;;21.70;68.80;;;;;;4978910;28;20205;-70
2022/06/09 00:20:16;;;;;;;0.90;0.75;;;21.70;68.80;;;;;;4994402;28;20177;-70
2022/06/09 00:22:43;;;;;;;2.42;0.65;;;21.70;68.80;;;;;;4994952;28;20181;-70
2022/06/09 00:25:10;;;;;;;0.60;0.60;;;21.70;68.70;;;;;;4994078;28;20185;-70
2022/06/09 00:27:36;;;;;;;0.82;0.50;;;21.70;68.80;;;;;;4994536;28;20229;-70
2022/06/09 00:30:05;;;;;;;2.35;0.70;;;21.70;69.60;;;;;;4994792;28;20185;-70
2022/06/09 00:32:32;;;;;;;0.77;0.60;;;21.70;68.80;;;;;;4994507;28;20185;-70
2022/06/09 00:34:58;;;;;;;0.73;0.60;;;21.70;68.80;;;;;;4978289;28;20264;-70
2022/06/09 00:37:23;;;;;;;0.73;0.55;;;21.60;68.70;;;;;;4994590;28;20356;-70
2022/06/09 00:39:49;;;;;;;0.57;0.57;;;21.70;68.80;;;;;;4978058;28;20196;-70
2022/06/09 00:42:16;;;;;;;0.95;0.70;;;21.70;68.80;;;;;;4994362;28;20212;-70
2022/06/09 00:44:43;;;;;;;0.60;0.50;;;21.70;68.80;;;;;;4994906;28;20189;-70
2022/06/09 00:47:24;;;;;;;0.73;0.60;;;21.70;68.80;;;;;;4994839;28;20220;-70
2022/06/09 00:50:10;;;;;;;0.65;0.60;;;21.70;68.80;;;;;;4977939;28;20556;-70
2022/06/09 00:52:45;;;;;;;0.60;0.60;;;21.70;68.80;;;;;;4994340;28;20215;-70
2022/06/09 00:55:21;;;;;;;0.77;0.50;;;21.70;68.80;;;;;;4994618;28;20192;-70
2022/06/09 00:57:57;;;;;;;0.47;0.47;;;21.70;68.80;;;;;;4995199;28;20232;-70
2022/06/09 01:00:35;;;;;;;0.60;0.60;;;21.70;68.80;;;;;;4994928;28;20199;-70
2022/06/09 01:03:02;;;;;;;0.60;0.40;;;21.70;68.80;;;;;;4995166;28;20189;-70
2022/06/09 01:05:32;;;;;;;0.50;0.40;;;21.60;68.70;;;;;;4995678;28;20180;-69
2022/06/09 01:08:03;;;;;;;0.60;0.57;;;21.70;68.80;;;;;;4994265;28;20692;-70
2022/06/09 01:10:30;;;;;;;3.22;0.70;;;21.60;68.70;;;;;;4995280;28;20240;-70
2022/06/09 01:12:58;;;;;;;0.50;0.50;;;21.60;68.70;;;;;;4995426;28;20205;-70
2022/06/09 01:15:38;;;;;;;1.65;0.57;;;21.60;68.70;;;;;;4993327;28;20196;-70
2022/06/09 01:18:49;;;;;;;0.40;0.40;;;21.60;68.70;;;;;;4994252;28;20204;-70
2022/06/09 01:22:01;;;;;;;0.75;0.55;;;21.70;68.80;;;;;;4962785;28;20204;-70
2022/06/09 01:24:56;;;;;;;1.42;0.57;;;21.60;68.80;;;;;;4995016;28;20173;-70
2022/06/09 01:28:30;;;;;;;0.88;0.60;;;21.70;68.90;;;;;;4977255;28;20602;-70
2022/06/09 01:31:29;;;;;;;1.42;0.60;;;21.70;68.90;;;;;;4977330;28;20189;-70
2022/06/09 01:34:15;;;;;;;0.50;0.50;;;21.60;68.80;;;;;;4994008;28;20196;-70
2022/06/09 01:36:53;;;;;;;0.43;0.43;;;21.70;68.90;;;;;;4997311;28;20184;-70
2022/06/09 01:39:29;;;;;;;0.65;0.55;;;21.70;68.90;;;;;;4996931;28;20212;-70
2022/06/09 01:41:55;;;;;;;0.50;0.50;;;21.70;69.00;;;;;;4981447;28;20185;-70
2022/06/09 01:44:20;;;;;;;0.52;0.50;;;21.60;68.80;;;;;;4997608;28;20243;-70
2022/06/09 01:46:47;;;;;;;1.15;0.40;;;21.70;69.00;;;;;;4997442;28;20663;-70
2022/06/09 01:49:24;;;;;;;0.40;0.40;;;21.60;68.80;;;;;;4996545;28;20201;-70
2022/06/09 01:51:52;;;;;;;0.50;0.50;;;21.70;69.00;;;;;;4997364;28;20187;-70
2022/06/09 01:54:30;;;;;;;0.60;0.60;;;21.60;68.90;;;;;;4997645;28;20208;-70
2022/06/09 01:57:09;;;;;;;0.82;0.50;;;21.70;69.00;;;;;;4998379;28;20189;-70
2022/06/09 01:59:46;;;;;;;0.55;0.55;;;21.60;68.90;;;;;;4997214;28;20233;-70
2022/06/09 02:02:21;;;;;;;0.60;0.43;;;21.60;68.90;;;;;;4997555;28;20188;-70
2022/06/09 02:04:57;;;;;;;0.38;0.38;;;21.70;68.90;;;;;;4997216;28;20264;-70
2022/06/09 02:07:27;;;;;;;1.02;0.47;;;21.60;68.80;;;;;;4997862;28;20223;-70
2022/06/09 02:09:54;;;;;;;0.50;0.50;;;21.70;69.00;;;;;;4980827;28;20213;-70
2022/06/09 02:12:27;;;;;;;0.45;0.45;;;21.70;68.90;;;;;;4997760;28;20177;-70
2022/06/09 02:14:58;;;;;;;0.40;0.40;;;21.70;69.00;;;;;;4997181;28;20204;-70
2022/06/09 02:17:24;;;;;;;0.75;0.50;;;21.70;68.90;;;;;;4997219;28;20205;-70
2022/06/09 02:19:51;;;;;;;0.47;0.40;;;21.70;69.00;;;;;;4980383;28;20181;-70
2022/06/09 02:22:18;;;;;;;1.20;0.40;;;21.60;68.90;;;;;;4996548;28;20181;-70
2022/06/09 02:24:43;;;;;;;0.40;0.40;;;21.70;69.00;;;;;;4980729;28;20272;-70
2022/06/09 02:27:10;;;;;;;0.60;0.60;;;21.70;69.00;;;;;;4997327;28;20247;-70
2022/06/09 02:29:36;;;;;;;0.50;0.50;;;21.70;69.00;;;;;;4995939;28;20188;-70
2022/06/09 02:32:02;;;;;;;0.50;0.40;;;21.70;68.90;;;;;;4980881;28;20181;-70
2022/06/09 02:34:28;;;;;;;0.47;0.40;;;21.70;68.90;;;;;;4996382;28;20656;-70
2022/06/09 02:36:54;;;;;;;0.50;0.50;;;21.60;68.80;;;;;;4975401;28;20243;-70
2022/06/09 02:39:20;;;;;;;0.40;0.40;;;21.60;68.80;;;;;;5011069;28;20262;-70
2022/06/09 02:41:45;;;;;;;0.32;0.32;;;21.70;68.80;;;;;;5012069;28;20275;-70
2022/06/09 02:44:11;;;;;;;0.40;0.40;;;21.60;68.70;;;;;;4995586;28;20173;-70
2022/06/09 02:46:37;;;;;;;0.40;0.40;;;21.60;68.70;;;;;;4996193;28;20217;-70
2022/06/09 02:49:03;;;;;;;0.35;0.35;;;21.60;68.70;;;;;;4994738;28;20303;-70
2022/06/09 02:51:35;;;;;;;0.30;0.30;;;21.60;68.70;;;;;;5012051;28;20181;-70
2022/06/09 02:54:06;;;;;;;0.50;0.50;;;21.60;68.70;;;;;;4996216;28;20223;-70
2022/06/09 02:56:32;;;;;;;0.38;0.38;;;21.60;68.60;;;;;;4996325;28;20272;-70
2022/06/09 02:58:58;;;;;;;0.73;0.50;;;21.60;68.70;;;;;;4995788;28;20223;-70
2022/06/09 03:01:26;;;;;;;0.40;0.40;;;21.70;68.80;;;;;;4996858;28;20188;-70
2022/06/09 03:03:53;;;;;;;0.52;0.50;;;21.60;68.70;;;;;;4996054;28;20189;-70
2022/06/09 03:06:20;;;;;;;0.70;0.50;;;21.60;68.70;;;;;;4995617;28;20221;-70
2022/06/09 03:08:46;;;;;;;0.50;0.50;;;21.60;68.70;;;;;;4995396;28;20209;-70
2022/06/09 03:11:12;;;;;;;2.92;0.40;;;21.60;68.70;;;;;;4996054;28;20177;-70
2022/06/09 03:13:41;;;;;;;0.50;0.50;;;21.60;68.70;;;;;;4996349;28;20196;-70
2022/06/09 03:16:09;;;;;;;0.40;0.40;;;21.60;68.60;;;;;;4996416;28;20189;-70
2022/06/09 03:18:35;;;;;;;0.40;0.40;;;21.60;68.60;;;;;;4979769;28;20209;-70
2022/06/09 03:21:01;;;;;;;0.47;0.40;;;21.60;68.70;;;;;;4995646;28;20201;-70
2022/06/09 03:23:27;;;;;;;0.47;0.40;;;21.60;68.70;;;;;;4979926;28;20177;-70
2022/06/09 03:25:53;;;;;;;0.47;0.47;;;21.60;68.70;;;;;;4996204;28;20812;-70
2022/06/09 03:28:19;;;;;;;0.50;0.50;;;21.60;68.70;;;;;;4979879;28;20213;-70
2022/06/09 03:30:45;;;;;;;0.60;0.52;;;21.60;68.70;;;;;;4995042;28;20184;-70
2022/06/09 03:33:11;;;;;;;0.30;0.30;;;21.60;68.70;;;;;;4995705;28;20192;-70
2022/06/09 03:35:37;;;;;;;0.40;0.40;;;21.60;68.70;;;;;;4996001;28;20275;-70
2022/06/09 03:38:04;;;;;;;0.40;0.40;;;21.60;68.70;;;;;;4987343;28;20202;-70
2022/06/09 03:40:31;;;;;;;0.40;0.40;;;21.60;68.70;;;;;;4975603;28;20190;-70
2022/06/09 03:43:02;;;;;;;0.47;0.40;;;21.60;68.60;;;;;;4977077;28;20186;-70
2022/06/09 03:45:30;;;;;;;0.45;0.40;;;21.60;68.70;;;;;;4976566;28;20218;-70
2022/06/09 03:47:56;;;;;;;0.47;0.47;;;21.60;68.70;;;;;;4996731;28;20671;-70
2022/06/09 03:50:26;;;;;;;0.38;0.38;;;21.60;68.70;;;;;;5013872;28;20219;-70
2022/06/09 03:52:52;;;;;;;0.60;0.60;;;21.60;68.70;;;;;;5015574;28;20640;-70
2022/06/09 03:55:19;;;;;;;0.40;0.40;;;21.60;68.70;;;;;;5014042;28;20267;-70
2022/06/09 03:57:44;;;;;;;0.60;0.60;;;21.60;68.70;;;;;;5016537;28;20200;-71
2022/06/09 04:00:17;;;;;;;0.30;0.30;;;21.60;68.70;;;;;;5014830;28;20209;-70
2022/06/09 04:02:43;;;;;;;0.57;0.40;;;21.60;68.60;;;;;;5018083;28;20179;-70
2022/06/09 04:05:09;;;;;;;0.45;0.45;;;21.60;68.70;;;;;;5017112;28;20239;-70
2022/06/09 04:07:35;;;;;;;0.43;0.43;;;21.60;68.60;;;;;;4996716;28;20295;-70
2022/06/09 04:10:02;;;;;;;0.50;0.50;;;21.60;68.70;;;;;;5013532;28;20219;-70
2022/06/09 04:12:27;;;;;;;0.38;0.38;;;21.50;68.60;;;;;;5014083;28;20184;-70
2022/06/09 04:14:53;;;;;;;0.73;0.60;;;21.60;68.70;;;;;;4997970;28;20188;-70
2022/06/09 04:17:19;;;;;;;0.50;0.40;;;21.60;68.70;;;;;;4997601;28;20196;-70
2022/06/09 04:19:45;;;;;;;0.40;0.40;;;21.60;68.70;;;;;;5013781;28;20230;-69
2022/06/09 04:22:10;;;;;;;0.40;0.40;;;21.60;68.70;;;;;;5014265;28;20214;-70
2022/06/09 04:24:36;;;;;;;0.50;0.40;;;21.50;68.60;;;;;;5030998;28;20641;-70
2022/06/09 04:27:03;;;;;;;0.57;0.40;;;21.60;68.70;;;;;;5013903;28;20224;-69
2022/06/09 04:29:29;;;;;;;0.40;0.40;;;21.60;68.70;;;;;;5013715;28;20176;-70
2022/06/09 04:31:55;;;;;;;0.52;0.52;;;21.60;68.70;;;;;;5013997;28;20206;-70
2022/06/09 04:34:21;;;;;;;0.50;0.50;;;21.60;68.60;;;;;;5014284;28;20278;-70
2022/06/09 04:36:46;;;;;;;0.63;0.43;;;21.60;68.70;;;;;;5014313;28;20234;-70
2022/06/09 04:39:12;;;;;;;1.00;0.30;;;21.50;68.60;;;;;;4998157;28;20219;-70
2022/06/09 04:41:39;;;;;;;0.40;0.40;;;21.60;68.70;;;;;;4997439;28;20191;-70
2022/06/09 04:44:06;;;;;;;0.68;0.50;;;21.60;68.70;;;;;;4997762;28;20188;-70
2022/06/09 04:46:32;;;;;;;0.30;0.30;;;21.60;68.70;;;;;;5013914;28;20262;-69
2022/06/09 04:48:58;;;;;;;0.52;0.52;;;21.60;68.70;;;;;;5014139;28;20211;-70
2022/06/09 04:51:28;;;;;;;0.50;0.50;;;21.60;68.70;;;;;;5013259;28;20263;-70
2022/06/09 04:53:54;;;;;;;0.52;0.52;;;21.60;68.70;;;;;;4997978;28;20423;-70
2022/06/09 04:56:21;;;;;;;1.05;0.60;;;21.60;68.70;;;;;;5014917;28;20192;-70
2022/06/09 04:58:48;;;;;;;0.73;0.43;;;21.50;68.60;;;;;;5014163;28;20276;-70
2022/06/09 05:01:40;;;;;;;0.50;0.50;;;21.60;68.70;;;;;;5014414;28;20192;-70
2022/06/09 05:04:06;;;;;;;0.50;0.50;;;21.60;68.70;;;;;;5010098;28;20199;-70
2022/06/09 05:06:32;;;;;;;0.60;0.60;;;21.60;68.70;;;;;;5013475;28;20214;-70
2022/06/09 05:08:58;;;;;;;1.05;0.30;;;21.50;68.60;;;;;;5013641;28;20208;-70
2022/06/09 05:11:25;;;;;;;0.60;0.50;;;21.60;68.70;;;;;;5031646;28;20186;-70
2022/06/09 05:13:51;;;;;;;0.50;0.50;;;21.50;68.50;;;;;;5017215;28;20247;-70
2022/06/09 05:16:18;;;;;;;0.65;0.40;;;21.60;68.70;;;;;;5032600;28;20190;-70
2022/06/09 05:18:44;;;;;;;0.73;0.52;;;21.60;68.70;;;;;;5016218;28;20215;-70
2022/06/09 05:21:10;;;;;;;0.68;0.50;;;21.50;68.60;;;;;;5015530;28;20234;-70
2022/06/09 05:23:37;;;;;;;0.77;0.60;;;21.60;68.70;;;;;;5016200;28;20203;-70
2022/06/09 05:26:06;;;;;;;0.50;0.50;;;21.60;68.60;;;;;;5016326;28;20200;-70
2022/06/09 05:28:33;;;;;;;0.57;0.57;;;21.60;68.60;;;;;;5033150;28;20200;-70
2022/06/09 05:31:00;;;;;;;0.65;0.63;;;21.50;68.60;;;;;;5016201;28;20176;-70
2022/06/09 05:33:26;;;;;;;0.52;0.40;;;21.60;68.70;;;;;;5032984;28;20272;-70
2022/06/09 05:35:52;;;;;;;0.60;0.60;;;21.60;68.70;;;;;;5000612;28;20176;-70
2022/06/09 05:46:34;;;;;;;0.50;0.50;;;21.50;68.60;;;;;;4997601;28;20193;-69
2022/06/09 05:49:01;;;;;;;0.60;0.60;;;21.60;68.60;;;;;;4996775;28;20204;-70
2022/06/09 05:51:26;;;;;;;0.77;0.55;;;21.50;68.60;;;;;;4996105;28;20188;-70
2022/06/09 05:53:52;;;;;;;0.73;0.50;;;21.50;68.60;;;;;;5012695;28;20189;-70
2022/06/09 05:56:19;;;;;;;0.60;0.55;;;21.60;68.60;;;;;;4979720;28;20204;-70
2022/06/09 05:58:46;;;;;;;0.60;0.50;;;21.50;68.60;;;;;;4996443;28;20276;-70
2022/06/09 06:01:13;;;;;;;0.50;0.50;;;21.50;68.60;;;;;;5012159;28;20557;-70
2022/06/09 06:03:40;;;;;;;0.60;0.60;;;21.50;68.50;;;;;;4997313;28;20184;-70
2022/06/09 06:08:51;;;;;;;0.85;0.60;;;21.50;69.30;;;;;;4995538;28;20211;-71
2022/06/09 06:11:17;;;;;;;0.88;0.60;;;21.50;68.60;;;;;;4983517;28;20192;-70
2022/06/09 06:13:45;;;;;;;0.70;0.60;;;21.50;68.60;;;;;;4988079;28;20264;-70
2022/06/09 06:16:12;;;;;;;0.70;0.52;;;21.50;68.60;;;;;;4979492;28;20284;-70
2022/06/09 06:18:38;;;;;;;1.67;0.70;;;21.50;68.60;;;;;;4994868;28;20201;-70
2022/06/09 06:21:04;;;;;;;0.50;0.50;;;21.50;68.60;;;;;;4983485;28;20217;-70
2022/06/09 06:23:30;;;;;;;0.47;0.47;;;21.50;68.50;;;;;;4994446;28;20184;-70
2022/06/09 06:25:57;;;;;;;0.43;0.38;;;21.50;68.40;;;;;;4996216;28;20672;-70
2022/06/09 06:28:24;;;;;;;0.60;0.50;;;21.50;68.30;;;;;;4990842;28;20237;-71
2022/06/09 06:30:51;;;;;;;0.88;0.50;;;21.50;68.30;;;;;;4986690;28;20181;-70
2022/06/09 06:33:17;;;;;;;1.00;0.60;;;21.50;68.20;;;;;;4987879;28;20564;-70
2022/06/09 06:35:43;;;;;;;0.45;0.45;;;21.50;68.10;;;;;;4987922;28;20184;-70
2022/06/09 06:38:09;;;;;;;0.60;0.60;;;21.50;68.10;;;;;;5010163;28;20208;-70
2022/06/09 06:40:35;;;;;;;0.75;0.50;;;21.50;68.10;;;;;;4990172;28;20212;-70
2022/06/09 06:43:02;;;;;;;1.15;0.50;;;21.50;67.90;;;;;;4977875;28;20617;-70
2022/06/09 06:45:28;;;;;;;1.30;0.60;;;21.50;68.60;;;;;;4989195;28;20189;-70
2022/06/09 06:47:56;;;;;;;0.52;0.52;;;21.50;68.40;;;;;;4974418;28;20299;-70
2022/06/09 06:50:23;;;;;;;0.60;0.60;;;21.50;67.90;;;;;;4972973;28;20181;-70
2022/06/09 06:52:49;;;;;;;1.15;0.60;;;21.50;67.90;;;;;;4970575;28;20188;-70
2022/06/09 06:55:20;;;;;;;0.70;0.47;;;21.50;67.90;;;;;;4994348;28;20177;-70
2022/06/09 06:57:46;;;;;;;1.65;0.77;;;21.60;67.90;;;;;;4995931;28;20208;-70
2022/06/09 07:00:21;;;;;;;0.68;0.65;;;21.60;67.80;;;;;;4985856;28;20269;-70
2022/06/09 07:02:48;;;;;;;1.52;0.80;;;21.60;67.70;;;;;;4995769;28;20176;-70
2022/06/09 07:05:16;;;;;;;0.50;0.50;;;21.60;67.60;;;;;;4995726;28;20184;-70
2022/06/09 07:07:42;;;;;;;1.80;0.70;;;21.50;67.40;;;;;;4995161;28;20213;-70
2022/06/09 07:10:10;;;;;;;0.47;0.47;;;21.60;67.60;;;;;;4993851;28;20543;-70
2022/06/09 07:12:38;;;;;;;0.85;0.70;;;21.60;67.60;;;;;;4994189;28;20187;-69
2022/06/09 07:15:06;;;;;;;0.60;0.60;;;21.60;67.50;;;;;;4992266;28;20185;-71
2022/06/09 07:17:32;;;;;;;1.33;0.70;;;21.60;67.50;;;;;;4993910;28;20205;-71
2022/06/09 07:19:58;;;;;;;1.13;0.52;;;21.60;67.40;;;;;;4991728;28;20210;-71
2022/06/09 07:22:24;;;;;;;0.50;0.50;;;21.60;67.20;;;;;;4993493;28;20200;-70
2022/06/09 07:24:50;;;;;;;0.65;0.63;;;21.60;67.20;;;;;;4975239;28;20193;-70
2022/06/09 07:27:16;;;;;;;0.88;0.55;;;21.60;67.40;;;;;;4974630;28;20273;-71
2022/06/09 07:29:42;;;;;;;0.75;0.50;;;21.60;67.20;;;;;;4973555;28;20268;-70
2022/06/09 07:32:09;;;;;;;0.75;0.50;;;21.60;67.00;;;;;;4958288;28;20225;-70
2022/06/09 07:34:36;;;;;;;0.60;0.60;;;21.60;67.20;;;;;;4987890;28;20188;-71
2022/06/09 07:37:03;;;;;;;1.48;0.73;;;21.60;67.00;;;;;;4992627;28;20192;-71
2022/06/09 07:39:29;;;;;;;1.38;0.80;;;21.60;67.00;;;;;;5009506;28;20215;-70
2022/06/09 07:41:55;;;;;;;0.60;0.60;;;21.60;67.20;;;;;;4992795;28;20197;-71
2022/06/09 07:44:21;;;;;;;0.60;0.60;;;21.60;67.10;;;;;;4993085;28;20193;-71
2022/06/09 07:46:47;;;;;;;0.80;0.70;;;21.60;66.80;;;;;;4977380;28;20244;-72
2022/06/09 07:49:13;;;;;;;0.65;0.60;;;21.60;66.80;;;;;;4993780;28;20240;-72
2022/06/09 07:51:40;;;;;;;1.42;0.82;;;21.60;66.80;;;;;;4971183;28;20190;-72
2022/06/09 07:54:06;;;;;;;2.40;0.70;;;21.60;66.70;;;;;;4974143;28;20188;-73
2022/06/09 07:56:33;;;;;;;1.42;0.60;;;21.60;66.60;;;;;;4973516;28;20200;-71
2022/06/09 07:59:00;;;;;;;0.98;0.80;;;21.60;66.60;;;;;;4985231;28;20208;-71
2022/06/09 08:01:27;;;;;;;2.15;0.70;;;21.70;66.40;;;;;;4993369;28;20605;-71
2022/06/09 08:03:54;;;;;;;0.77;0.70;;;21.60;66.30;;;;;;4993181;28;20188;-71
2022/06/09 08:06:21;;;;;;;1.63;0.70;;;21.70;66.40;;;;;;4993959;28;20219;-71
2022/06/09 08:08:49;;;;;;;1.60;0.70;;;21.70;66.30;;;;;;4994024;28;20201;-72
2022/06/09 08:11:15;;;;;;;0.88;0.63;;;21.60;66.00;;;;;;4993467;28;20216;-72
2022/06/09 08:13:41;;;;;;;1.25;0.60;;;21.70;66.20;;;;;;4994448;28;20193;-72
2022/06/09 08:16:08;;;;;;;2.15;0.80;;;21.60;65.80;;;;;;4993829;28;20184;-73
2022/06/09 08:18:34;;;;;;;1.55;0.65;;;21.70;66.10;;;;;;4992823;28;20223;-72
2022/06/09 08:21:00;;;;;;;2.03;0.80;;;21.70;66.10;;;;;;4992768;28;20250;-73
2022/06/09 08:23:28;;;;;;;0.70;0.70;;;21.70;66.20;;;;;;5011586;28;20196;-72
2022/06/09 08:26:03;;;;;;;1.92;0.80;;;21.70;66.10;;;;;;5011861;28;20212;-72
2022/06/09 08:28:29;;;;;;;1.80;0.70;;;21.70;66.20;;;;;;4995321;28;20203;-72
2022/06/09 08:30:57;;;;;;;0.80;0.70;;;21.70;66.00;;;;;;4994633;28;20215;-71
2022/06/09 08:33:25;;;;;;;2.47;0.70;;;21.70;66.10;;;;;;5011484;28;20330;-71
2022/06/09 08:35:52;;;;;;;1.10;0.70;;;21.70;66.20;;;;;;5011527;28;20198;-71
2022/06/09 08:38:19;;;;;;;1.23;0.77;;;21.70;66.10;;;;;;5011237;28;20714;-71
2022/06/09 08:41:13;;;;;;;1.60;0.68;;;21.70;65.80;;;;;;5010688;28;20708;-72
2022/06/09 08:44:16;;;;;;;0.60;0.60;;;21.70;65.60;;;;;;5011627;28;20188;-72
2022/06/09 08:47:15;;;;;;;0.98;0.57;;;21.70;65.50;;;;;;4997499;28;20307;-71
2022/06/09 08:49:57;;;;;;;2.10;0.60;;;21.80;65.70;;;;;;5032156;28;20187;-71
2022/06/09 08:52:54;;;;;;;0.75;0.63;;;21.80;65.70;;;;;;5015058;28;20554;-71
2022/06/09 08:55:45;;;;;;;1.75;0.60;;;21.80;65.50;;;;;;5015260;28;20191;-71
2022/06/09 08:58:19;;;;;;;0.50;0.50;;;21.80;65.30;;;;;;5015435;28;20234;-71
2022/06/09 09:01:02;;;;;;;1.40;0.73;;;21.80;65.30;;;;;;5014979;28;20180;-71
2022/06/09 09:03:40;;;;;;;1.08;0.70;;;21.80;65.50;;;;;;5015186;28;20201;-71
2022/06/09 09:06:23;;;;;;;1.92;0.80;;;21.80;65.30;;;;;;5015304;28;20204;-71
2022/06/09 09:08:50;;;;;;;1.02;0.68;;;21.80;65.40;;;;;;5031451;28;20226;-71
2022/06/09 09:12:19;;;;;;;2.63;0.80;;;21.80;65.30;;;;;;5014710;28;20184;-70
2022/06/09 09:15:18;;;;;;;0.80;0.80;;;21.80;65.30;;;;;;4955563;29;20178;-71
2022/06/09 09:18:24;;;;;;;1.55;0.80;;;21.80;65.10;;;;;;4955107;29;20646;-71
2022/06/09 09:21:13;;;;;;;0.70;0.60;;;21.80;65.30;;;;;;4998093;28;20184;-71
2022/06/09 09:24:09;;;;;;;2.08;1.05;;;21.80;65.20;;;;;;5015103;28;20180;-71
2022/06/09 09:26:57;;;;;;;1.60;0.73;;;21.80;65.20;;;;;;5031438;28;20299;-71
2022/06/09 09:29:32;;;;;;;1.35;0.60;;;21.80;65.20;;;;;;5000755;28;20216;-70
2022/06/09 09:32:22;;;;;;;0.80;0.80;;;21.80;65.30;;;;;;4994658;28;20188;-71
2022/06/09 09:34:51;;;;;;;1.20;0.73;;;21.80;65.10;;;;;;4995336;28;20173;-71
2022/06/09 09:37:32;;;;;;;1.50;0.70;;;21.80;65.00;;;;;;4994808;28;20177;-70
2022/06/09 09:40:26;;;;;;;1.20;0.93;;;21.80;65.10;;;;;;4978434;28;20196;-70
2022/06/09 09:42:57;;;;;;;1.48;0.88;;;21.80;65.00;;;;;;4995020;28;20193;-71
2022/06/09 09:45:45;;;;;;;1.48;0.73;;;21.80;64.80;;;;;;4995121;28;20288;-71
2022/06/09 09:48:17;;;;;;;0.85;0.77;;;21.80;64.90;;;;;;4995281;28;20703;-71
2022/06/09 09:50:59;;;;;;;1.33;0.70;;;21.80;64.80;;;;;;4994499;28;20217;-71
2022/06/09 09:53:38;;;;;;;0.68;0.68;;;21.80;64.90;;;;;;4994913;28;20192;-70
2022/06/09 09:56:16;;;;;;;1.30;0.90;;;21.80;64.90;;;;;;4995010;28;20255;-70
2022/06/09 09:59:16;;;;;;;1.95;0.70;;;21.80;64.80;;;;;;4978490;28;20236;-73
2022/06/09 10:10:28;;;;;;;0.82;0.50;;;21.80;64.70;;;;;;4994397;28;20192;-70
2022/06/09 10:12:56;;;;;;;2.17;0.85;;;21.90;65.00;;;;;;4994813;28;20177;-69
2022/06/09 10:15:26;;;;;;;3.80;1.05;;;21.80;65.50;;;;;;4994600;28;20223;-70
2022/06/09 10:18:03;;;;;;;2.85;1.02;;;21.90;64.70;;;;;;5010894;28;20208;-70
2022/06/09 10:20:43;;;;;;;2.80;1.10;;;21.90;65.00;;;;;;4983196;28;20189;-70
2022/06/09 10:23:18;;;;;;;6.18;1.77;;;21.90;64.60;;;;;;4984892;28;20192;-72
2022/06/09 10:26:02;;;;;;;1.38;0.93;;;21.90;64.90;;;;;;5005535;28;20180;-71
2022/06/09 10:28:49;;;;;;;4.65;1.30;;;22.00;65.00;;;;;;5008293;28;20208;-71
2022/06/09 10:31:30;;;;;;;4.60;1.05;;;21.90;65.00;;;;;;5008927;28;20178;-70
2022/06/09 10:34:33;;;;;;;5.10;1.00;;;22.00;64.80;;;;;;4958644;28;20201;-71
2022/06/09 10:37:19;;;;;;;3.03;0.88;;;21.90;64.60;;;;;;4975124;28;20189;-70
2022/06/09 10:39:57;;;;;;;4.90;0.95;;;21.90;64.70;;;;;;4958793;28;20209;-70
2022/06/09 10:42:35;;;;;;;4.57;1.10;;;21.80;64.40;;;;;;4975713;28;20170;-70
2022/06/09 10:45:09;;;;;;;2.95;1.33;;;21.90;64.60;;;;;;4990801;28;20177;-70
2022/06/09 10:57:10;;;;;;;4.82;0.95;;;21.90;64.30;;;;;;4979924;28;20201;-71
2022/06/09 11:00:13;;;;;;;2.03;0.90;;;21.90;63.90;;;;;;4989302;28;20285;-71
2022/06/09 11:02:46;;;;;;;4.13;0.98;;;21.80;64.10;;;;;;5021415;28;20270;-71
2022/06/09 11:05:17;;;;;;;3.78;0.68;;;21.90;64.30;;;;;;5013078;28;20180;-71
2022/06/09 11:07:55;;;;;;;4.65;1.02;;;21.90;64.20;;;;;;4996390;28;20223;-71
2022/06/09 11:10:26;;;;;;;2.97;0.70;;;21.90;64.10;;;;;;4988079;28;20212;-71
2022/06/09 11:13:09;;;;;;;2.20;0.88;;;21.90;64.20;;;;;;5008691;28;20180;-71
2022/06/09 11:16:10;;;;;;;2.55;0.80;;;21.90;64.90;;;;;;5014420;28;20230;-70
2022/06/09 11:18:42;;;;;;;3.97;1.02;;;21.90;64.10;;;;;;4995855;28;20220;-71
2022/06/09 11:21:29;;;;;;;2.47;0.80;;;22.00;64.00;;;;;;5012747;28;20177;-71
2022/06/09 11:24:34;;;;;;;2.75;0.90;;;21.90;64.20;;;;;;5012877;28;20235;-71
2022/06/09 11:27:15;;;;;;;2.75;0.55;;;21.90;64.10;;;;;;4986943;28;20218;-70
2022/06/09 11:30:15;;;;;;;2.15;0.70;;;21.90;64.80;;;;;;5018001;28;20184;-70
2022/06/09 11:33:11;;;;;;;2.28;0.80;;;21.90;63.80;;;;;;4996162;28;20195;-71
2022/06/09 11:35:55;;;;;;;5.13;1.00;;;21.90;64.80;;;;;;4956549;28;20212;-71
2022/06/09 11:38:41;;;;;;;1.00;0.80;;;21.90;64.10;;;;;;4957604;28;20220;-71
2022/06/09 11:41:19;;;;;;;0.88;0.65;;;21.90;64.20;;;;;;4972840;28;20181;-71
2022/06/09 11:44:00;;;;;;;1.88;0.50;;;21.90;64.00;;;;;;4973738;28;20276;-71
2022/06/09 11:46:33;;;;;;;1.48;0.73;;;21.90;63.60;;;;;;4957542;28;20244;-71
2022/06/09 11:49:06;;;;;;;2.35;1.02;;;22.00;63.90;;;;;;4973094;28;20214;-71
2022/06/09 11:51:35;;;;;;;4.38;0.90;;;21.90;64.10;;;;;;4956649;28;20265;-71
2022/06/09 11:54:06;;;;;;;3.15;0.82;;;22.00;64.20;;;;;;5005723;28;20185;-70
2022/06/09 11:56:43;;;;;;;1.48;0.80;;;21.90;64.10;;;;;;5004989;28;20184;-71
2022/06/09 11:59:11;;;;;;;1.42;0.93;;;21.90;63.70;;;;;;5013266;28;20207;-71
2022/06/09 12:01:40;;;;;;;2.17;0.70;;;21.90;63.70;;;;;;5011642;28;20196;-71
2022/06/09 12:05:01;;;;;;;2.40;0.85;;;21.90;63.90;;;;;;5013615;28;20176;-71
2022/06/09 12:07:45;;;;;;;1.50;0.70;;;22.00;63.90;;;;;;4995695;28;20302;-71
2022/06/09 12:10:45;;;;;;;2.05;0.70;;;21.90;63.50;;;;;;5011941;28;20176;-72
2022/06/09 12:13:25;;;;;;;1.08;0.68;;;21.90;63.70;;;;;;5011751;28;20188;-71
2022/06/09 12:16:48;;;;;;;1.13;0.55;;;21.90;63.60;;;;;;5009176;28;20186;-71
2022/06/09 12:19:13;;;;;;;2.42;0.70;;;21.90;63.70;;;;;;4944863;29;20214;-70
2022/06/09 12:21:44;;;;;;;1.42;0.60;;;21.90;63.70;;;;;;4969396;28;20202;-71
2022/06/09 12:24:53;;;;;;;1.27;0.60;;;21.90;63.50;;;;;;4993265;28;20192;-71
2022/06/09 12:27:42;;;;;;;1.92;0.80;;;21.90;63.70;;;;;;4986927;28;20229;-71
2022/06/09 12:30:26;;;;;;;1.88;0.65;;;21.90;63.30;;;;;;4971784;28;20189;-71
2022/06/09 12:33:11;;;;;;;1.20;0.73;;;21.90;63.30;;;;;;4973752;28;20297;-71
2022/06/09 12:35:50;;;;;;;2.50;0.70;;;21.90;63.50;;;;;;4972638;28;20190;-71
2022/06/09 12:38:36;;;;;;;1.08;0.65;;;21.90;63.20;;;;;;4956327;28;20213;-71
2022/06/09 12:41:29;;;;;;;3.30;0.85;;;21.90;63.20;;;;;;4972151;28;20185;-71
2022/06/09 12:44:24;;;;;;;2.28;0.90;;;21.90;63.10;;;;;;4956637;28;20197;-71
2022/06/09 12:47:00;;;;;;;2.83;1.00;;;21.90;63.10;;;;;;4972658;28;20224;-71
2022/06/09 12:49:36;;;;;;;1.45;0.60;;;21.90;63.70;;;;;;4972373;28;20696;-71
2022/06/09 12:52:33;;;;;;;2.08;0.52;;;21.90;63.50;;;;;;4983383;28;20226;-71
2022/06/09 12:55:18;;;;;;;1.50;0.60;;;21.90;63.40;;;;;;4999727;28;20654;-71
2022/06/09 12:57:54;;;;;;;2.97;0.90;;;21.90;63.40;;;;;;4991996;28;20205;-71
2022/06/09 13:00:34;;;;;;;1.05;0.70;;;21.90;63.40;;;;;;4991261;28;20184;-70
2022/06/09 13:03:00;;;;;;;1.73;0.70;;;21.90;63.30;;;;;;4991777;28;20636;-71
2022/06/09 13:05:33;;;;;;;2.17;0.65;;;21.90;63.40;;;;;;4992762;28;20199;-71
2022/06/09 13:08:13;;;;;;;2.05;0.50;;;21.90;63.10;;;;;;4991502;28;20221;-71
2022/06/09 13:10:44;;;;;;;1.00;0.65;;;21.90;63.30;;;;;;4991566;28;20173;-71
2022/06/09 13:13:22;;;;;;;1.33;0.70;;;21.90;63.30;;;;;;4992950;28;20169;-71
2022/06/09 13:16:05;;;;;;;1.48;0.52;;;21.90;63.50;;;;;;4991743;28;20177;-71
2022/06/09 13:18:39;;;;;;;0.90;0.60;;;21.90;63.40;;;;;;4992803;28;20259;-70
2022/06/09 13:21:22;;;;;;;3.28;0.82;;;21.90;63.20;;;;;;4991111;28;20231;-71
2022/06/09 13:23:56;;;;;;;1.73;0.70;;;21.90;63.30;;;;;;4999424;28;20263;-70
2022/06/09 13:26:41;;;;;;;1.30;0.65;;;21.90;63.00;;;;;;5007029;28;20211;-71
2022/06/09 13:29:27;;;;;;;1.05;0.75;;;21.90;63.00;;;;;;4994766;28;20250;-71
2022/06/09 13:32:19;;;;;;;1.38;0.70;;;21.90;63.40;;;;;;4989463;28;20257;-71
2022/06/09 13:34:48;;;;;;;0.88;0.70;;;21.90;63.50;;;;;;4973614;28;20196;-71
2022/06/09 13:37:34;;;;;;;1.67;0.65;;;21.90;63.20;;;;;;4995241;28;20191;-71
2022/06/09 13:40:15;;;;;;;1.25;0.60;;;21.90;63.30;;;;;;4995640;28;20239;-71
2022/06/09 13:42:58;;;;;;;1.23;0.80;;;21.90;63.00;;;;;;4995430;28;20267;-71
2022/06/09 13:45:31;;;;;;;1.00;0.60;;;21.90;63.30;;;;;;4995329;28;20637;-71
2022/06/09 13:48:19;;;;;;;1.38;0.85;;;21.90;63.20;;;;;;4995162;28;20287;-71
2022/06/09 13:51:20;;;;;;;0.63;0.50;;;21.90;63.40;;;;;;4994656;28;20271;-70